createdAt,value
2017-08-19T00:02:10.528Z,2.80
2017-08-19T00:04:40.363Z,3.70
2017-08-19T00:07:08.962Z,3.30
2017-08-19T00:09:38.431Z,4.13
2017-08-19T00:12:06.715Z,30.00
2017-08-19T00:14:36.502Z,14.27
2017-08-19T00:17:04.858Z,3.30
2017-08-19T00:19:33.905Z,3.00
2017-08-19T00:22:02.175Z,4.07
2017-08-19T00:24:31.878Z,3.27
2017-08-19T00:27:00.042Z,3.63
2017-08-19T00:29:29.823Z,3.80
2017-08-19T00:31:58.184Z,2.40
2017-08-19T00:34:26.462Z,4.07
2017-08-19T00:36:54.730Z,4.00
2017-08-19T00:39:24.115Z,4.30
2017-08-19T00:41:52.795Z,3.30
2017-08-19T00:44:22.424Z,3.30
2017-08-19T00:46:51.060Z,3.17
2017-08-19T00:49:20.471Z,2.83
2017-08-19T00:51:48.751Z,3.13
2017-08-19T00:54:17.289Z,2.63
2017-08-19T00:56:46.912Z,4.27
2017-08-19T00:59:16.431Z,3.20
2017-08-19T01:01:44.683Z,3.27
2017-08-19T01:04:12.978Z,3.07
2017-08-19T01:06:42.031Z,2.77
2017-08-19T01:09:11.527Z,3.67
2017-08-19T01:11:39.822Z,2.50
2017-08-19T01:14:08.095Z,2.70
2017-08-19T01:16:36.435Z,2.67
2017-08-19T01:19:04.711Z,3.40
2017-08-19T01:21:33.755Z,2.30
2017-08-19T01:24:02.103Z,2.40
2017-08-19T01:26:42.959Z,2.33
2017-08-19T01:29:11.296Z,3.67
2017-08-19T01:31:40.360Z,2.30
2017-08-19T01:34:08.672Z,3.20
2017-08-19T01:36:37.012Z,2.70
2017-08-19T01:39:05.291Z,3.00
2017-08-19T01:41:35.078Z,3.00
2017-08-19T01:44:03.415Z,2.57
2017-08-19T01:46:31.704Z,3.07
2017-08-19T01:48:59.988Z,2.90
2017-08-19T01:51:29.822Z,4.57
2017-08-19T01:53:58.115Z,3.33
2017-08-19T01:56:26.391Z,3.57
2017-08-19T01:58:56.219Z,3.30
2017-08-19T02:01:25.841Z,3.63
2017-08-19T02:03:54.395Z,2.63
2017-08-19T02:06:23.144Z,3.13
2017-08-19T02:08:52.772Z,3.27
2017-08-19T02:11:22.059Z,2.93
2017-08-19T02:13:50.400Z,3.37
2017-08-19T02:16:18.679Z,3.10
2017-08-19T02:18:46.955Z,3.03
2017-08-19T02:21:15.295Z,4.10
2017-08-19T02:23:44.346Z,4.20
2017-08-19T02:26:12.641Z,3.90
2017-08-19T02:28:41.009Z,3.20
2017-08-19T02:31:09.282Z,3.87
2017-08-19T02:33:39.077Z,4.70
2017-08-19T02:36:08.789Z,3.27
2017-08-19T02:38:37.702Z,4.13
2017-08-19T02:41:07.114Z,3.57
2017-08-19T02:43:35.726Z,4.03
2017-08-19T02:46:04.395Z,3.40
2017-08-19T02:48:32.673Z,4.17
2017-08-19T02:51:02.375Z,4.93
2017-08-19T02:53:32.047Z,3.73
2017-08-19T02:56:00.319Z,3.27
2017-08-19T02:58:28.663Z,4.00
2017-08-19T03:00:56.943Z,4.47
2017-08-19T03:03:25.218Z,3.90
2017-08-19T03:05:53.551Z,4.17
2017-08-19T03:08:22.607Z,3.60
2017-08-19T03:10:51.274Z,3.40
2017-08-19T03:13:19.618Z,3.93
2017-08-19T03:15:47.896Z,3.50
2017-08-19T03:18:17.680Z,3.13
2017-08-19T03:20:46.030Z,3.80
2017-08-19T03:23:15.806Z,3.40
2017-08-19T03:25:44.105Z,4.60
2017-08-19T03:28:12.446Z,3.43
2017-08-19T03:30:41.495Z,5.20
2017-08-19T03:33:09.791Z,3.27
2017-08-19T03:35:38.167Z,3.23
2017-08-19T03:38:06.446Z,3.70
2017-08-19T03:40:34.727Z,3.17
2017-08-19T03:43:04.163Z,3.53
2017-08-19T03:45:33.210Z,3.60
2017-08-19T03:48:02.850Z,3.10
2017-08-19T03:50:31.044Z,3.53
2017-08-19T03:52:59.343Z,2.60
2017-08-19T03:55:27.622Z,3.80
2017-08-19T03:57:57.298Z,3.93
2017-08-19T04:00:25.456Z,3.20
2017-08-19T04:02:53.741Z,4.10
2017-08-19T04:05:23.457Z,3.60
2017-08-19T04:07:52.006Z,4.23
2017-08-19T04:10:20.291Z,3.70
2017-08-19T04:12:48.652Z,3.77
2017-08-19T04:15:18.279Z,3.77
2017-08-19T04:17:47.577Z,3.70
2017-08-19T04:20:16.418Z,3.40
2017-08-19T04:22:44.730Z,3.10
2017-08-19T04:25:13.802Z,3.50
2017-08-19T04:27:42.311Z,4.23
2017-08-19T04:30:10.598Z,3.37
2017-08-19T04:32:38.884Z,2.93
2017-08-19T04:35:07.226Z,2.90
2017-08-19T04:37:35.503Z,2.37
2017-08-19T04:40:05.550Z,3.07
2017-08-19T04:42:35.142Z,2.90
2017-08-19T04:45:03.696Z,3.47
2017-08-19T04:47:33.106Z,3.70
2017-08-19T04:50:02.858Z,3.83
2017-08-19T04:52:31.427Z,3.37
2017-08-19T04:55:01.216Z,3.10
2017-08-19T04:57:29.556Z,3.13
2017-08-19T04:59:59.199Z,2.93
2017-08-19T05:02:27.750Z,2.30
2017-08-19T05:04:57.471Z,3.17
2017-08-19T05:07:26.762Z,2.40
2017-08-19T05:09:55.043Z,2.90
2017-08-19T05:12:24.491Z,3.33
2017-08-19T05:14:54.118Z,3.10
2017-08-19T05:17:22.674Z,3.37
2017-08-19T05:19:51.126Z,3.60
2017-08-19T05:22:19.411Z,3.00
2017-08-19T05:24:47.691Z,2.37
2017-08-19T05:27:17.399Z,3.30
2017-08-19T05:29:45.562Z,2.90
2017-08-19T05:32:13.855Z,4.10
2017-08-19T05:34:42.222Z,2.27
2017-08-19T05:37:10.927Z,2.40
2017-08-19T05:39:39.213Z,3.10
2017-08-19T05:42:07.955Z,3.00
2017-08-19T05:44:36.232Z,4.00
2017-08-19T05:47:04.506Z,3.47
2017-08-19T05:49:32.838Z,3.10
2017-08-19T05:52:02.258Z,2.97
2017-08-19T05:54:30.543Z,2.60
2017-08-19T05:56:58.882Z,4.43
2017-08-19T05:59:27.159Z,3.60
2017-08-19T06:01:56.789Z,3.20
2017-08-19T06:04:26.358Z,2.93
2017-08-19T06:06:55.281Z,2.23
2017-08-19T06:09:24.898Z,3.30
2017-08-19T06:11:53.879Z,2.50
2017-08-19T06:14:22.919Z,2.87
2017-08-19T06:16:51.194Z,2.90
2017-08-19T06:19:20.910Z,3.37
2017-08-19T06:21:49.058Z,2.90
2017-08-19T06:24:17.339Z,3.97
2017-08-19T06:26:45.679Z,2.93
2017-08-19T06:29:13.973Z,2.60
2017-08-19T06:31:45.823Z,2.70
2017-08-19T06:34:14.279Z,3.40
2017-08-19T06:36:42.578Z,2.53
2017-08-19T06:39:12.374Z,2.90
2017-08-19T06:41:41.115Z,3.13
2017-08-19T06:44:10.553Z,3.23
2017-08-19T06:46:40.218Z,2.73
2017-08-19T06:49:09.798Z,2.80
2017-08-19T06:51:39.335Z,2.17
2017-08-19T06:54:07.498Z,2.77
2017-08-19T06:56:36.899Z,3.00
2017-08-19T06:59:05.188Z,2.70
2017-08-19T07:01:34.809Z,2.53
2017-08-19T07:04:03.467Z,3.63
2017-08-19T07:06:33.255Z,2.73
2017-08-19T07:09:02.916Z,2.70
2017-08-19T07:11:31.870Z,3.23
2017-08-19T07:14:00.169Z,2.23
2017-08-19T07:16:29.810Z,2.50
2017-08-19T07:18:58.788Z,2.70
2017-08-19T07:21:28.251Z,2.37
2017-08-19T07:23:57.874Z,3.00
2017-08-19T07:26:27.210Z,2.30
2017-08-19T07:28:56.990Z,3.10
2017-08-19T07:31:25.275Z,2.93
2017-08-19T07:33:55.210Z,2.40
2017-08-19T07:36:23.755Z,3.10
2017-08-19T07:38:52.431Z,2.23
2017-08-19T07:41:22.111Z,2.40
2017-08-19T07:43:51.618Z,3.33
2017-08-19T07:46:20.910Z,2.87
2017-08-19T07:48:49.257Z,2.77
2017-08-19T07:51:18.879Z,2.20
2017-08-19T07:53:47.820Z,2.70
2017-08-19T07:56:16.207Z,3.53
2017-08-19T07:58:46.010Z,3.17
2017-08-19T08:01:14.312Z,2.97
2017-08-19T08:03:42.669Z,3.07
2017-08-19T08:06:10.951Z,4.37
2017-08-19T08:08:40.416Z,4.40
2017-08-19T08:11:08.750Z,2.80
2017-08-19T08:13:37.030Z,3.60
2017-08-19T08:16:05.324Z,4.43
2017-08-19T08:18:33.651Z,4.50
2017-08-19T08:21:02.330Z,3.17
2017-08-19T08:23:31.011Z,4.03
2017-08-19T08:25:59.383Z,2.90
2017-08-19T08:28:28.812Z,3.00
2017-08-19T08:30:57.111Z,3.17
2017-08-19T08:33:25.535Z,3.00
2017-08-19T08:35:54.208Z,2.90
2017-08-19T08:38:23.238Z,3.40
2017-08-19T08:40:51.567Z,3.30
2017-08-19T08:43:19.843Z,3.23
2017-08-19T08:45:48.119Z,2.97
2017-08-19T08:48:16.442Z,3.70
2017-08-19T08:50:46.075Z,3.87
2017-08-19T08:53:15.808Z,3.83
2017-08-19T08:55:44.180Z,5.47
2017-08-19T08:58:13.245Z,3.60
2017-08-19T09:00:42.893Z,3.20
2017-08-19T09:03:11.529Z,4.90
2017-08-19T09:05:40.588Z,4.40
2017-08-19T09:08:10.222Z,3.13
2017-08-19T09:10:38.831Z,4.97
2017-08-19T09:13:07.115Z,3.67
2017-08-19T09:15:35.394Z,4.00
2017-08-19T09:18:04.102Z,4.57
2017-08-19T09:20:33.138Z,4.30
2017-08-19T09:23:02.190Z,4.80
2017-08-19T09:25:30.568Z,4.57
2017-08-19T09:27:59.989Z,4.50
2017-08-19T09:30:28.274Z,4.93
2017-08-19T09:32:56.998Z,5.00
2017-08-19T09:35:25.674Z,3.67
2017-08-19T09:37:54.043Z,5.10
2017-08-19T09:40:23.886Z,3.70
2017-08-19T09:42:52.034Z,3.13
2017-08-19T09:45:20.307Z,4.77
2017-08-19T09:47:48.643Z,2.97
2017-08-19T09:50:16.918Z,2.80
2017-08-19T09:52:46.545Z,2.70
2017-08-19T09:55:15.894Z,2.33
2017-08-19T09:57:44.934Z,2.07
2017-08-19T10:00:14.607Z,2.63
2017-08-19T10:02:43.962Z,2.60
2017-08-19T10:05:12.255Z,2.53
2017-08-19T10:07:41.681Z,2.77
2017-08-19T10:10:21.873Z,2.40
2017-08-19T10:12:51.490Z,2.37
2017-08-19T10:15:20.990Z,2.80
2017-08-19T10:17:49.956Z,2.80
2017-08-19T10:20:18.990Z,2.80
2017-08-19T10:22:48.043Z,3.20
2017-08-19T10:25:17.730Z,3.03
2017-08-19T10:27:46.646Z,2.70
2017-08-19T10:30:14.940Z,2.67
2017-08-19T10:32:44.431Z,3.23
2017-08-19T10:35:13.140Z,2.67
2017-08-19T10:37:41.441Z,2.50
2017-08-19T10:40:11.676Z,2.17
2017-08-19T10:42:40.757Z,2.63
2017-08-19T10:45:09.083Z,3.00
2017-08-19T10:47:37.430Z,3.10
2017-08-19T10:50:06.448Z,2.80
2017-08-19T10:52:35.864Z,2.53
2017-08-19T10:55:05.560Z,2.73
2017-08-19T10:57:35.059Z,2.37
2017-08-19T11:00:03.612Z,2.20
2017-08-19T11:02:33.627Z,2.77
2017-08-19T11:05:03.131Z,3.20
2017-08-19T11:07:32.639Z,3.00
2017-08-19T11:10:02.378Z,2.67
2017-08-19T11:12:32.173Z,2.13
2017-08-19T11:15:00.459Z,2.77
2017-08-19T11:17:31.354Z,2.43
2017-08-19T11:19:59.639Z,2.17
2017-08-19T11:22:28.680Z,2.53
2017-08-19T11:24:57.691Z,2.03
2017-08-19T11:27:27.112Z,2.00
2017-08-19T11:29:55.391Z,2.50
2017-08-19T11:32:25.086Z,1.87
2017-08-19T11:34:54.583Z,2.60
2017-08-19T11:37:23.884Z,2.40
2017-08-19T11:39:52.238Z,2.30
2017-08-19T11:42:20.777Z,2.10
2017-08-19T11:44:49.825Z,3.10
2017-08-19T11:47:18.179Z,3.17
2017-08-19T11:49:47.810Z,2.63
2017-08-19T11:52:15.974Z,2.20
2017-08-19T11:54:44.666Z,2.77
2017-08-19T11:57:12.978Z,2.53
2017-08-19T11:59:41.284Z,2.77
2017-08-19T12:02:10.782Z,2.43
2017-08-19T12:04:39.063Z,2.80
2017-08-19T12:07:08.867Z,2.33
2017-08-19T12:09:37.609Z,2.73
2017-08-19T12:12:05.887Z,2.47
2017-08-19T12:14:35.299Z,2.40
2017-08-19T12:17:04.378Z,2.60
2017-08-19T12:19:33.796Z,3.00
2017-08-19T12:22:02.078Z,2.17
2017-08-19T12:24:30.405Z,3.00
2017-08-19T12:27:00.068Z,1.97
2017-08-19T12:29:29.727Z,2.97
2017-08-19T12:31:59.607Z,2.37
2017-08-19T12:34:27.768Z,2.17
2017-08-19T12:36:57.395Z,2.00
2017-08-19T12:39:26.815Z,2.47
2017-08-19T12:41:56.438Z,2.70
2017-08-19T12:44:24.654Z,2.10
2017-08-19T12:46:52.986Z,2.40
2017-08-19T12:49:22.610Z,2.17
2017-08-19T12:51:50.759Z,1.90
2017-08-19T12:54:19.094Z,2.00
2017-08-19T12:56:47.766Z,2.50
2017-08-19T12:59:17.394Z,1.60
2017-08-19T13:01:46.015Z,1.90
2017-08-19T13:04:14.305Z,2.27
2017-08-19T13:06:43.372Z,2.13
2017-08-19T13:09:11.745Z,2.43
2017-08-19T13:11:40.815Z,1.87
2017-08-19T13:14:09.886Z,1.90
2017-08-19T13:16:38.222Z,2.13
2017-08-19T13:19:06.495Z,1.83
2017-08-19T13:21:36.123Z,1.70
2017-08-19T13:24:04.336Z,2.00
2017-08-19T13:26:32.607Z,1.83
2017-08-19T13:29:00.892Z,1.40
2017-08-19T13:31:30.593Z,2.20
2017-08-19T13:33:59.528Z,1.60
2017-08-19T13:36:27.799Z,1.70
2017-08-19T13:38:57.276Z,2.00
2017-08-19T13:41:25.559Z,1.53
2017-08-19T13:43:53.831Z,2.23
2017-08-19T13:46:23.551Z,1.90
2017-08-19T13:48:53.041Z,1.70
2017-08-19T13:51:21.194Z,2.03
2017-08-19T13:53:50.879Z,1.50
2017-08-19T13:56:20.389Z,1.33
2017-08-19T13:58:49.671Z,1.80
2017-08-19T14:01:17.999Z,1.90
2017-08-19T14:03:46.275Z,1.47
2017-08-19T14:06:14.571Z,2.00
2017-08-19T14:08:44.055Z,2.10
2017-08-19T14:11:12.344Z,1.93
2017-08-19T14:13:40.637Z,1.60
2017-08-19T14:16:09.036Z,2.63
2017-08-19T14:18:37.311Z,1.80
2017-08-19T14:21:05.586Z,2.63
2017-08-19T14:23:34.692Z,1.80
2017-08-19T14:26:03.735Z,2.13
2017-08-19T14:28:33.360Z,1.83
2017-08-19T14:31:02.363Z,2.40
2017-08-19T14:33:31.402Z,2.20
2017-08-19T14:36:00.838Z,2.50
2017-08-19T14:38:29.599Z,2.77
2017-08-19T14:40:57.887Z,2.80
2017-08-19T14:43:26.166Z,3.10
2017-08-19T14:45:55.655Z,2.77
2017-08-19T14:48:24.332Z,3.10
2017-08-19T14:50:52.615Z,3.80
2017-08-19T14:53:20.980Z,3.63
2017-08-19T14:55:50.392Z,3.53
2017-08-19T14:58:18.675Z,3.60
2017-08-19T15:00:47.403Z,3.10
2017-08-19T15:03:15.699Z,3.20
2017-08-19T15:05:44.756Z,3.30
2017-08-19T15:08:13.127Z,3.60
2017-08-19T15:10:41.424Z,2.80
2017-08-19T15:13:10.131Z,3.17
2017-08-19T15:15:39.260Z,3.30
2017-08-19T15:18:07.552Z,3.57
2017-08-19T15:20:36.232Z,3.63
2017-08-19T15:23:05.360Z,3.47
2017-08-19T15:25:35.155Z,4.40
2017-08-19T15:28:04.819Z,5.70
2017-08-19T15:30:34.394Z,3.60
2017-08-19T15:33:03.803Z,3.50
2017-08-19T15:35:32.850Z,3.83
2017-08-19T15:38:03.857Z,3.97
2017-08-19T15:40:32.780Z,3.77
2017-08-19T15:43:01.076Z,3.60
2017-08-19T15:45:29.430Z,3.20
2017-08-19T15:47:57.708Z,2.87
2017-08-19T15:50:26.758Z,2.20
2017-08-19T15:52:56.435Z,2.43
2017-08-19T15:55:25.355Z,2.83
2017-08-19T15:57:53.635Z,2.60
2017-08-19T16:00:23.336Z,2.40
2017-08-19T16:02:51.967Z,2.07
2017-08-19T16:05:20.320Z,2.83
2017-08-19T16:07:48.679Z,2.30
2017-08-19T16:10:18.496Z,3.43
2017-08-19T16:12:47.539Z,2.40
2017-08-19T16:15:16.503Z,2.60
2017-08-19T16:17:44.795Z,3.20
2017-08-19T16:20:14.611Z,2.60
2017-08-19T16:22:42.988Z,2.13
2017-08-19T16:25:12.620Z,2.50
2017-08-19T16:27:40.806Z,2.90
2017-08-19T16:30:10.618Z,2.80
2017-08-19T16:32:39.547Z,2.97
2017-08-19T16:35:09.169Z,2.80
2017-08-19T16:37:37.791Z,3.07
2017-08-19T16:40:07.417Z,2.70
2017-08-19T16:42:37.123Z,3.17
2017-08-19T16:45:05.586Z,3.10
2017-08-19T16:47:33.863Z,2.80
2017-08-19T16:50:02.153Z,3.10
2017-08-19T16:52:31.851Z,2.90
2017-08-19T16:55:00.028Z,3.30
2017-08-19T16:57:28.328Z,3.10
2017-08-19T16:59:56.650Z,2.67
2017-08-19T17:02:26.066Z,2.63
2017-08-19T17:04:54.342Z,3.00
2017-08-19T17:07:22.855Z,3.27
2017-08-19T17:09:51.138Z,3.13
2017-08-19T17:12:20.771Z,2.40
2017-08-19T17:14:50.839Z,2.90
2017-08-19T17:17:19.511Z,2.73
2017-08-19T17:19:47.778Z,3.10
2017-08-19T17:22:17.467Z,2.87
2017-08-19T17:24:47.132Z,2.03
2017-08-19T17:27:15.413Z,2.13
2017-08-19T17:29:45.287Z,1.80
2017-08-19T17:32:13.579Z,2.20
2017-08-19T17:34:43.387Z,2.43
2017-08-19T17:37:11.739Z,2.10
2017-08-19T17:39:40.807Z,3.30
2017-08-19T17:42:09.856Z,2.20
2017-08-19T17:44:39.548Z,2.23
2017-08-19T17:47:08.830Z,2.00
2017-08-19T17:49:38.450Z,2.07
2017-08-19T17:52:07.038Z,2.97
2017-08-19T17:54:36.672Z,2.23
2017-08-19T17:57:05.214Z,2.60
2017-08-19T17:59:34.912Z,2.53
2017-08-19T18:02:04.563Z,2.20
2017-08-19T18:04:32.838Z,1.83
2017-08-19T18:07:01.210Z,2.07
2017-08-19T18:09:29.491Z,2.13
2017-08-19T18:11:59.302Z,1.93
2017-08-19T18:14:27.634Z,2.03
2017-08-19T18:16:57.258Z,2.50
2017-08-19T18:19:25.407Z,1.90
2017-08-19T18:21:53.738Z,2.00
2017-08-19T18:24:22.778Z,2.53
2017-08-19T18:26:52.186Z,2.87
2017-08-19T18:29:20.527Z,2.70
2017-08-19T18:31:50.156Z,2.57
2017-08-19T18:34:18.698Z,2.23
2017-08-19T18:36:47.035Z,2.60
2017-08-19T18:39:15.316Z,2.30
2017-08-19T18:41:44.750Z,2.53
2017-08-19T18:44:14.960Z,2.57
2017-08-19T18:46:44.755Z,2.90
2017-08-19T18:49:14.549Z,3.50
2017-08-19T18:51:44.389Z,2.67
2017-08-19T18:54:12.950Z,2.60
2017-08-19T18:56:41.260Z,2.80
2017-08-19T18:59:09.998Z,2.83
2017-08-19T19:01:38.278Z,2.80
2017-08-19T19:04:07.683Z,2.67
2017-08-19T19:06:36.371Z,3.10
2017-08-19T19:09:06.153Z,3.17
2017-08-19T19:11:34.428Z,3.73
2017-08-19T19:14:04.378Z,2.60
2017-08-19T19:16:33.883Z,3.40
2017-08-19T19:19:02.041Z,2.73
2017-08-19T19:21:32.098Z,3.00
2017-08-19T19:24:01.398Z,3.27
2017-08-19T19:26:30.453Z,4.00
2017-08-19T19:29:00.467Z,2.70
2017-08-19T19:31:29.978Z,3.00
2017-08-19T19:33:58.924Z,3.77
2017-08-19T19:36:27.250Z,3.70
2017-08-19T19:38:55.527Z,3.40
2017-08-19T19:41:24.936Z,3.70
2017-08-19T19:43:54.135Z,3.00
2017-08-19T19:46:23.914Z,3.50
2017-08-19T19:48:52.197Z,3.00
2017-08-19T19:51:20.516Z,3.30
2017-08-19T19:53:50.290Z,3.13
2017-08-19T19:56:19.950Z,3.40
2017-08-19T19:58:49.298Z,3.70
2017-08-19T20:01:17.966Z,3.60
2017-08-19T20:03:47.587Z,3.60
2017-08-19T20:06:16.227Z,4.00
2017-08-19T20:08:44.532Z,3.43
2017-08-19T20:11:12.809Z,4.60
2017-08-19T20:13:42.665Z,4.77
2017-08-19T20:16:10.841Z,4.37
2017-08-19T20:18:39.132Z,4.37
2017-08-19T20:21:07.839Z,5.23
2017-08-19T20:23:36.114Z,4.60
2017-08-19T20:26:05.155Z,4.77
2017-08-19T20:28:33.856Z,5.60
2017-08-19T20:31:03.640Z,4.60
2017-08-19T20:33:31.917Z,5.73
2017-08-19T20:36:01.214Z,4.80
2017-08-19T20:38:30.850Z,5.17
2017-08-19T20:40:59.016Z,5.57
2017-08-19T20:43:28.703Z,4.73
2017-08-19T20:45:58.209Z,6.33
2017-08-19T20:48:26.359Z,5.63
2017-08-19T20:50:56.194Z,6.10
2017-08-19T20:53:25.815Z,5.77
2017-08-19T20:55:54.731Z,5.70
2017-08-19T20:58:23.058Z,7.80
2017-08-19T21:00:51.326Z,7.63
2017-08-19T21:03:19.999Z,9.60
2017-08-19T21:05:48.750Z,11.87
2017-08-19T21:08:17.440Z,10.97
2017-08-19T21:10:45.743Z,10.27
2017-08-19T21:13:14.129Z,10.53
2017-08-19T21:15:43.926Z,9.70
2017-08-19T21:18:13.584Z,10.10
2017-08-19T21:20:43.274Z,8.47
2017-08-19T21:23:11.833Z,7.63
2017-08-19T21:25:40.902Z,7.37
2017-08-19T21:28:10.238Z,6.97
2017-08-19T21:30:39.294Z,7.80
2017-08-19T21:33:08.339Z,7.00
2017-08-19T21:35:36.759Z,6.77
2017-08-19T21:38:07.438Z,6.60
2017-08-19T21:40:36.391Z,7.60
2017-08-19T21:43:04.730Z,6.33
2017-08-19T21:45:34.517Z,6.73
2017-08-19T21:48:04.171Z,5.57
2017-08-19T21:50:33.671Z,6.17
2017-08-19T21:53:03.291Z,5.57
2017-08-19T21:55:31.447Z,5.20
2017-08-19T21:58:01.141Z,5.17
2017-08-19T22:00:30.657Z,5.50
2017-08-19T22:03:00.176Z,4.90
2017-08-19T22:05:28.383Z,4.97
2017-08-19T22:07:58.011Z,5.80
2017-08-19T22:10:27.510Z,4.50
2017-08-19T22:12:56.347Z,4.23
2017-08-19T22:15:26.128Z,4.87
2017-08-19T22:17:54.406Z,4.70
2017-08-19T22:20:24.261Z,5.37
2017-08-19T22:22:52.538Z,4.40
2017-08-19T22:25:21.221Z,4.57
2017-08-19T22:27:50.742Z,4.20
2017-08-19T22:30:19.023Z,4.07
2017-08-19T22:34:18.035Z,3.67
2017-08-19T22:36:47.463Z,3.90
2017-08-19T22:39:15.759Z,3.70
2017-08-19T22:41:44.387Z,4.23
2017-08-19T22:44:14.191Z,3.93
2017-08-19T22:46:43.619Z,4.07
2017-08-19T22:49:12.072Z,3.77
2017-08-19T22:51:41.885Z,3.53
2017-08-19T22:54:10.930Z,3.50
2017-08-19T22:56:40.027Z,4.40
2017-08-19T22:59:08.303Z,3.50
2017-08-19T23:01:36.583Z,3.20
2017-08-19T23:04:05.063Z,3.10
2017-08-19T23:06:34.695Z,2.97
2017-08-19T23:09:02.858Z,2.80
2017-08-19T23:11:31.246Z,3.27
2017-08-19T23:14:00.700Z,3.20
2017-08-19T23:16:29.001Z,3.83
2017-08-19T23:18:57.330Z,3.67
2017-08-19T23:21:26.007Z,3.20
2017-08-19T23:23:54.282Z,3.37
2017-08-19T23:26:23.684Z,4.10
2017-08-19T23:28:51.962Z,4.00
2017-08-19T23:31:20.249Z,3.87
2017-08-19T23:33:48.987Z,3.60
2017-08-19T23:36:17.659Z,3.10
2017-08-19T23:38:45.947Z,4.03
2017-08-19T23:41:15.660Z,4.37
2017-08-19T23:43:43.836Z,3.90
2017-08-19T23:46:12.134Z,3.93
2017-08-19T23:48:40.456Z,4.37
2017-08-19T23:51:08.742Z,4.63
2017-08-19T23:53:37.030Z,4.30
2017-08-19T23:56:05.362Z,4.60
2017-08-19T23:58:34.779Z,4.13
